sensor_id;sensor_type;location;lat;lon;timestamp;P1;durP1;ratioP1;P2;durP2;ratioP2
53959;SDS011;39866;48.638;-2.020;2022-12-07T00:01:43;24.95;;;16.83;;
53959;SDS011;39866;48.638;-2.020;2022-12-07T00:04:11;29.88;;;17.58;;
53959;SDS011;39866;48.638;-2.020;2022-12-07T00:06:39;30.58;;;17.98;;
53959;SDS011;39866;48.638;-2.020;2022-12-07T00:09:10;28.60;;;17.30;;
53959;SDS011;39866;48.638;-2.020;2022-12-07T00:11:37;24.90;;;16.58;;
53959;SDS011;39866;48.638;-2.020;2022-12-07T00:14:05;28.30;;;18.00;;
53959;SDS011;39866;48.638;-2.020;2022-12-07T00:16:32;28.90;;;18.13;;
53959;SDS011;39866;48.638;-2.020;2022-12-07T00:18:59;27.98;;;17.48;;
53959;SDS011;39866;48.638;-2.020;2022-12-07T00:21:26;26.27;;;16.60;;
53959;SDS011;39866;48.638;-2.020;2022-12-07T00:23:54;27.15;;;17.60;;
53959;SDS011;39866;48.638;-2.020;2022-12-07T00:26:24;24.90;;;16.35;;
53959;SDS011;39866;48.638;-2.020;2022-12-07T00:28:53;26.60;;;17.10;;
53959;SDS011;39866;48.638;-2.020;2022-12-07T00:31:21;28.92;;;18.20;;
53959;SDS011;39866;48.638;-2.020;2022-12-07T00:33:48;30.10;;;18.35;;
53959;SDS011;39866;48.638;-2.020;2022-12-07T00:36:15;26.58;;;17.45;;
53959;SDS011;39866;48.638;-2.020;2022-12-07T00:38:42;27.40;;;17.80;;
53959;SDS011;39866;48.638;-2.020;2022-12-07T00:41:09;26.42;;;17.27;;
53959;SDS011;39866;48.638;-2.020;2022-12-07T00:43:37;26.70;;;18.27;;
53959;SDS011;39866;48.638;-2.020;2022-12-07T00:46:03;26.65;;;17.85;;
53959;SDS011;39866;48.638;-2.020;2022-12-07T00:48:28;30.58;;;18.48;;
53959;SDS011;39866;48.638;-2.020;2022-12-07T00:50:53;34.25;;;19.60;;
53959;SDS011;39866;48.638;-2.020;2022-12-07T00:53:19;30.48;;;17.85;;
53959;SDS011;39866;48.638;-2.020;2022-12-07T00:55:45;29.95;;;18.15;;
53959;SDS011;39866;48.638;-2.020;2022-12-07T00:58:10;27.27;;;18.30;;
53959;SDS011;39866;48.638;-2.020;2022-12-07T01:00:37;27.55;;;18.17;;
53959;SDS011;39866;48.638;-2.020;2022-12-07T01:03:03;26.02;;;17.42;;
53959;SDS011;39866;48.638;-2.020;2022-12-07T01:05:29;28.83;;;18.30;;
53959;SDS011;39866;48.638;-2.020;2022-12-07T01:07:55;26.58;;;18.20;;
53959;SDS011;39866;48.638;-2.020;2022-12-07T01:10:20;26.33;;;18.23;;
53959;SDS011;39866;48.638;-2.020;2022-12-07T01:12:45;26.10;;;17.27;;
53959;SDS011;39866;48.638;-2.020;2022-12-07T01:15:11;27.27;;;17.63;;
53959;SDS011;39866;48.638;-2.020;2022-12-07T01:17:36;26.98;;;17.55;;
53959;SDS011;39866;48.638;-2.020;2022-12-07T01:20:02;27.33;;;17.80;;
53959;SDS011;39866;48.638;-2.020;2022-12-07T01:22:28;25.77;;;18.10;;
53959;SDS011;39866;48.638;-2.020;2022-12-07T01:24:54;26.17;;;17.05;;
53959;SDS011;39866;48.638;-2.020;2022-12-07T01:27:19;24.50;;;16.00;;
53959;SDS011;39866;48.638;-2.020;2022-12-07T01:29:45;24.92;;;16.75;;
53959;SDS011;39866;48.638;-2.020;2022-12-07T01:32:10;25.52;;;17.30;;
53959;SDS011;39866;48.638;-2.020;2022-12-07T01:34:36;26.00;;;17.30;;
53959;SDS011;39866;48.638;-2.020;2022-12-07T01:37:01;24.63;;;16.90;;
53959;SDS011;39866;48.638;-2.020;2022-12-07T01:39:27;24.15;;;17.27;;
53959;SDS011;39866;48.638;-2.020;2022-12-07T01:41:52;22.80;;;16.48;;
53959;SDS011;39866;48.638;-2.020;2022-12-07T01:46:47;27.55;;;17.52;;
53959;SDS011;39866;48.638;-2.020;2022-12-07T01:52:45;27.02;;;18.77;;
53959;SDS011;39866;48.638;-2.020;2022-12-07T01:55:05;25.27;;;17.23;;
53959;SDS011;39866;48.638;-2.020;2022-12-07T01:57:36;24.00;;;17.15;;
53959;SDS011;39866;48.638;-2.020;2022-12-07T02:00:05;25.65;;;17.48;;
53959;SDS011;39866;48.638;-2.020;2022-12-07T02:02:37;27.38;;;18.35;;
53959;SDS011;39866;48.638;-2.020;2022-12-07T02:05:06;26.25;;;17.58;;
53959;SDS011;39866;48.638;-2.020;2022-12-07T02:07:32;26.35;;;18.45;;
53959;SDS011;39866;48.638;-2.020;2022-12-07T02:12:39;26.33;;;17.63;;
53959;SDS011;39866;48.638;-2.020;2022-12-07T02:15:05;26.85;;;17.25;;
53959;SDS011;39866;48.638;-2.020;2022-12-07T02:17:32;23.58;;;16.42;;
53959;SDS011;39866;48.638;-2.020;2022-12-07T02:32:10;23.25;;;16.55;;
53959;SDS011;39866;48.638;-2.020;2022-12-07T02:34:50;25.75;;;17.00;;
53959;SDS011;39866;48.638;-2.020;2022-12-07T02:37:21;24.10;;;17.02;;
53959;SDS011;39866;48.638;-2.020;2022-12-07T02:39:56;24.63;;;17.17;;
53959;SDS011;39866;48.638;-2.020;2022-12-07T02:42:30;26.27;;;17.42;;
53959;SDS011;39866;48.638;-2.020;2022-12-07T02:45:02;25.02;;;17.13;;
53959;SDS011;39866;48.638;-2.020;2022-12-07T02:47:28;23.90;;;16.52;;
53959;SDS011;39866;48.638;-2.020;2022-12-07T02:49:56;23.48;;;16.42;;
53959;SDS011;39866;48.638;-2.020;2022-12-07T02:52:22;25.83;;;16.70;;
53959;SDS011;39866;48.638;-2.020;2022-12-07T02:54:47;25.17;;;17.40;;
53959;SDS011;39866;48.638;-2.020;2022-12-07T02:57:25;23.98;;;16.75;;
53959;SDS011;39866;48.638;-2.020;2022-12-07T03:00:17;25.25;;;17.55;;
53959;SDS011;39866;48.638;-2.020;2022-12-07T03:02:53;26.63;;;17.77;;
53959;SDS011;39866;48.638;-2.020;2022-12-07T03:11:02;23.15;;;15.80;;
53959;SDS011;39866;48.638;-2.020;2022-12-07T03:13:34;23.63;;;16.30;;
53959;SDS011;39866;48.638;-2.020;2022-12-07T03:16:16;24.63;;;16.95;;
53959;SDS011;39866;48.638;-2.020;2022-12-07T03:18:47;25.67;;;16.60;;
53959;SDS011;39866;48.638;-2.020;2022-12-07T03:21:18;24.33;;;16.90;;
53959;SDS011;39866;48.638;-2.020;2022-12-07T03:23:48;24.35;;;16.30;;
53959;SDS011;39866;48.638;-2.020;2022-12-07T03:26:19;22.55;;;15.73;;
53959;SDS011;39866;48.638;-2.020;2022-12-07T03:28:50;23.42;;;17.00;;
53959;SDS011;39866;48.638;-2.020;2022-12-07T03:31:25;23.77;;;16.20;;
53959;SDS011;39866;48.638;-2.020;2022-12-07T03:37:05;25.05;;;16.83;;
53959;SDS011;39866;48.638;-2.020;2022-12-07T03:39:37;26.33;;;16.92;;
53959;SDS011;39866;48.638;-2.020;2022-12-07T03:44:36;24.13;;;17.08;;
53959;SDS011;39866;48.638;-2.020;2022-12-07T03:47:16;25.20;;;17.05;;
53959;SDS011;39866;48.638;-2.020;2022-12-07T03:52:18;25.35;;;17.60;;
53959;SDS011;39866;48.638;-2.020;2022-12-07T03:55:06;24.67;;;17.20;;
53959;SDS011;39866;48.638;-2.020;2022-12-07T03:57:36;24.70;;;16.50;;
53959;SDS011;39866;48.638;-2.020;2022-12-07T04:00:05;27.90;;;18.05;;
53959;SDS011;39866;48.638;-2.020;2022-12-07T04:02:31;25.13;;;17.83;;
53959;SDS011;39866;48.638;-2.020;2022-12-07T04:04:58;25.10;;;17.25;;
53959;SDS011;39866;48.638;-2.020;2022-12-07T04:07:23;25.75;;;17.35;;
53959;SDS011;39866;48.638;-2.020;2022-12-07T04:09:48;24.88;;;17.30;;
53959;SDS011;39866;48.638;-2.020;2022-12-07T04:12:14;24.98;;;17.23;;
53959;SDS011;39866;48.638;-2.020;2022-12-07T04:14:39;25.70;;;17.35;;
53959;SDS011;39866;48.638;-2.020;2022-12-07T04:17:05;25.35;;;16.95;;
53959;SDS011;39866;48.638;-2.020;2022-12-07T04:19:32;24.17;;;17.00;;
53959;SDS011;39866;48.638;-2.020;2022-12-07T04:21:59;23.70;;;16.50;;
53959;SDS011;39866;48.638;-2.020;2022-12-07T04:24:26;24.60;;;15.60;;
53959;SDS011;39866;48.638;-2.020;2022-12-07T04:26:52;26.05;;;17.50;;
53959;SDS011;39866;48.638;-2.020;2022-12-07T04:29:17;24.40;;;16.52;;
53959;SDS011;39866;48.638;-2.020;2022-12-07T04:31:43;24.70;;;17.63;;
53959;SDS011;39866;48.638;-2.020;2022-12-07T04:34:10;26.25;;;17.50;;
53959;SDS011;39866;48.638;-2.020;2022-12-07T04:36:36;25.20;;;17.25;;
53959;SDS011;39866;48.638;-2.020;2022-12-07T04:39:02;24.88;;;16.70;;
53959;SDS011;39866;48.638;-2.020;2022-12-07T04:41:28;23.52;;;16.25;;
53959;SDS011;39866;48.638;-2.020;2022-12-07T04:43:54;22.45;;;16.25;;
53959;SDS011;39866;48.638;-2.020;2022-12-07T04:46:25;27.17;;;18.23;;
53959;SDS011;39866;48.638;-2.020;2022-12-07T04:48:52;27.25;;;18.45;;
53959;SDS011;39866;48.638;-2.020;2022-12-07T04:51:19;23.20;;;16.02;;
53959;SDS011;39866;48.638;-2.020;2022-12-07T04:53:47;26.00;;;17.55;;
53959;SDS011;39866;48.638;-2.020;2022-12-07T04:56:13;35.03;;;31.33;;
53959;SDS011;39866;48.638;-2.020;2022-12-07T04:58:39;27.80;;;21.67;;
53959;SDS011;39866;48.638;-2.020;2022-12-07T05:01:04;27.73;;;20.98;;
53959;SDS011;39866;48.638;-2.020;2022-12-07T05:03:30;26.20;;;19.23;;
53959;SDS011;39866;48.638;-2.020;2022-12-07T05:05:55;25.40;;;18.10;;
53959;SDS011;39866;48.638;-2.020;2022-12-07T05:08:20;24.13;;;17.42;;
53959;SDS011;39866;48.638;-2.020;2022-12-07T05:10:46;23.55;;;17.95;;
53959;SDS011;39866;48.638;-2.020;2022-12-07T05:13:14;23.95;;;17.30;;
53959;SDS011;39866;48.638;-2.020;2022-12-07T05:15:39;23.73;;;16.05;;
53959;SDS011;39866;48.638;-2.020;2022-12-07T05:18:05;22.42;;;15.40;;
53959;SDS011;39866;48.638;-2.020;2022-12-07T05:20:30;21.50;;;15.52;;
53959;SDS011;39866;48.638;-2.020;2022-12-07T05:22:56;21.50;;;15.80;;
53959;SDS011;39866;48.638;-2.020;2022-12-07T05:25:23;22.10;;;15.55;;
53959;SDS011;39866;48.638;-2.020;2022-12-07T05:27:48;22.73;;;15.45;;
53959;SDS011;39866;48.638;-2.020;2022-12-07T05:30:14;21.65;;;14.95;;
53959;SDS011;39866;48.638;-2.020;2022-12-07T05:32:39;23.52;;;16.75;;
53959;SDS011;39866;48.638;-2.020;2022-12-07T05:35:05;21.77;;;15.13;;
53959;SDS011;39866;48.638;-2.020;2022-12-07T05:37:30;22.02;;;15.35;;
53959;SDS011;39866;48.638;-2.020;2022-12-07T05:39:56;20.08;;;14.18;;
53959;SDS011;39866;48.638;-2.020;2022-12-07T05:42:21;21.48;;;14.82;;
53959;SDS011;39866;48.638;-2.020;2022-12-07T05:44:47;22.40;;;15.60;;
53959;SDS011;39866;48.638;-2.020;2022-12-07T05:47:13;21.08;;;15.00;;
53959;SDS011;39866;48.638;-2.020;2022-12-07T05:49:39;20.90;;;14.85;;
53959;SDS011;39866;48.638;-2.020;2022-12-07T05:52:05;24.02;;;15.23;;
53959;SDS011;39866;48.638;-2.020;2022-12-07T05:54:31;20.10;;;14.48;;
53959;SDS011;39866;48.638;-2.020;2022-12-07T05:56:56;21.77;;;14.32;;
53959;SDS011;39866;48.638;-2.020;2022-12-07T05:59:22;21.40;;;14.07;;
53959;SDS011;39866;48.638;-2.020;2022-12-07T06:01:58;21.95;;;14.55;;
53959;SDS011;39866;48.638;-2.020;2022-12-07T06:04:26;19.73;;;14.52;;
53959;SDS011;39866;48.638;-2.020;2022-12-07T06:06:53;21.05;;;14.77;;
53959;SDS011;39866;48.638;-2.020;2022-12-07T06:09:20;22.63;;;14.73;;
53959;SDS011;39866;48.638;-2.020;2022-12-07T06:11:47;20.67;;;14.77;;
53959;SDS011;39866;48.638;-2.020;2022-12-07T06:14:31;19.25;;;14.13;;
53959;SDS011;39866;48.638;-2.020;2022-12-07T06:16:57;21.90;;;15.13;;
53959;SDS011;39866;48.638;-2.020;2022-12-07T06:19:23;21.45;;;14.57;;
53959;SDS011;39866;48.638;-2.020;2022-12-07T06:21:48;21.75;;;15.18;;
53959;SDS011;39866;48.638;-2.020;2022-12-07T06:24:14;21.13;;;15.02;;
53959;SDS011;39866;48.638;-2.020;2022-12-07T06:26:41;19.42;;;14.15;;
53959;SDS011;39866;48.638;-2.020;2022-12-07T06:29:08;21.55;;;14.73;;
53959;SDS011;39866;48.638;-2.020;2022-12-07T06:31:35;22.17;;;15.25;;
53959;SDS011;39866;48.638;-2.020;2022-12-07T06:34:03;22.38;;;15.23;;
53959;SDS011;39866;48.638;-2.020;2022-12-07T06:36:30;21.70;;;14.90;;
53959;SDS011;39866;48.638;-2.020;2022-12-07T06:38:56;20.20;;;13.95;;
53959;SDS011;39866;48.638;-2.020;2022-12-07T06:41:22;20.88;;;13.80;;
53959;SDS011;39866;48.638;-2.020;2022-12-07T06:43:47;21.55;;;14.23;;
53959;SDS011;39866;48.638;-2.020;2022-12-07T06:46:13;22.77;;;15.32;;
53959;SDS011;39866;48.638;-2.020;2022-12-07T06:48:40;22.70;;;15.85;;
53959;SDS011;39866;48.638;-2.020;2022-12-07T06:51:05;22.15;;;15.88;;
53959;SDS011;39866;48.638;-2.020;2022-12-07T06:53:31;23.60;;;16.65;;
53959;SDS011;39866;48.638;-2.020;2022-12-07T06:55:56;21.65;;;15.88;;
53959;SDS011;39866;48.638;-2.020;2022-12-07T06:58:21;23.65;;;16.35;;
53959;SDS011;39866;48.638;-2.020;2022-12-07T07:00:47;21.33;;;15.38;;
53959;SDS011;39866;48.638;-2.020;2022-12-07T07:03:14;25.83;;;16.65;;
53959;SDS011;39866;48.638;-2.020;2022-12-07T07:05:40;22.48;;;16.02;;
53959;SDS011;39866;48.638;-2.020;2022-12-07T07:08:05;22.45;;;15.43;;
53959;SDS011;39866;48.638;-2.020;2022-12-07T07:10:30;29.15;;;16.95;;
53959;SDS011;39866;48.638;-2.020;2022-12-07T07:12:56;23.33;;;15.90;;
53959;SDS011;39866;48.638;-2.020;2022-12-07T07:15:21;25.52;;;16.77;;
53959;SDS011;39866;48.638;-2.020;2022-12-07T07:17:47;23.67;;;16.70;;
53959;SDS011;39866;48.638;-2.020;2022-12-07T07:20:12;22.27;;;15.80;;
53959;SDS011;39866;48.638;-2.020;2022-12-07T07:22:37;23.02;;;16.30;;
53959;SDS011;39866;48.638;-2.020;2022-12-07T07:25:03;23.83;;;15.90;;
53959;SDS011;39866;48.638;-2.020;2022-12-07T07:27:28;23.08;;;16.17;;
53959;SDS011;39866;48.638;-2.020;2022-12-07T07:29:54;26.45;;;16.33;;
53959;SDS011;39866;48.638;-2.020;2022-12-07T07:32:19;25.58;;;16.38;;
53959;SDS011;39866;48.638;-2.020;2022-12-07T07:34:46;24.80;;;16.15;;
53959;SDS011;39866;48.638;-2.020;2022-12-07T07:37:11;24.10;;;15.95;;
53959;SDS011;39866;48.638;-2.020;2022-12-07T07:39:37;25.45;;;17.05;;
53959;SDS011;39866;48.638;-2.020;2022-12-07T07:42:03;25.33;;;17.27;;
53959;SDS011;39866;48.638;-2.020;2022-12-07T07:44:29;24.13;;;16.90;;
53959;SDS011;39866;48.638;-2.020;2022-12-07T07:46:54;23.10;;;16.33;;
53959;SDS011;39866;48.638;-2.020;2022-12-07T07:49:19;23.52;;;16.05;;
53959;SDS011;39866;48.638;-2.020;2022-12-07T07:51:45;25.52;;;17.05;;
53959;SDS011;39866;48.638;-2.020;2022-12-07T07:54:10;23.60;;;16.60;;
53959;SDS011;39866;48.638;-2.020;2022-12-07T07:56:35;27.33;;;17.55;;
53959;SDS011;39866;48.638;-2.020;2022-12-07T07:59:01;23.55;;;16.58;;
53959;SDS011;39866;48.638;-2.020;2022-12-07T08:01:26;27.27;;;18.00;;
53959;SDS011;39866;48.638;-2.020;2022-12-07T08:03:51;23.30;;;16.17;;
53959;SDS011;39866;48.638;-2.020;2022-12-07T08:06:17;25.70;;;17.20;;
53959;SDS011;39866;48.638;-2.020;2022-12-07T08:08:42;24.85;;;17.98;;
53959;SDS011;39866;48.638;-2.020;2022-12-07T08:11:08;26.08;;;17.67;;
53959;SDS011;39866;48.638;-2.020;2022-12-07T08:13:34;25.90;;;17.33;;
53959;SDS011;39866;48.638;-2.020;2022-12-07T08:16:07;27.33;;;17.45;;
53959;SDS011;39866;48.638;-2.020;2022-12-07T08:18:35;25.70;;;17.25;;
53959;SDS011;39866;48.638;-2.020;2022-12-07T08:21:02;29.35;;;18.60;;
53959;SDS011;39866;48.638;-2.020;2022-12-07T08:23:28;27.15;;;18.55;;
53959;SDS011;39866;48.638;-2.020;2022-12-07T08:25:54;33.13;;;19.70;;
53959;SDS011;39866;48.638;-2.020;2022-12-07T08:28:19;28.00;;;18.55;;
53959;SDS011;39866;48.638;-2.020;2022-12-07T08:30:44;27.95;;;18.25;;
53959;SDS011;39866;48.638;-2.020;2022-12-07T08:33:10;30.15;;;19.45;;
53959;SDS011;39866;48.638;-2.020;2022-12-07T08:35:36;28.70;;;18.27;;
53959;SDS011;39866;48.638;-2.020;2022-12-07T08:38:01;31.17;;;19.95;;
53959;SDS011;39866;48.638;-2.020;2022-12-07T08:40:28;29.38;;;19.20;;
53959;SDS011;39866;48.638;-2.020;2022-12-07T08:42:54;27.83;;;18.98;;
53959;SDS011;39866;48.638;-2.020;2022-12-07T08:45:20;30.77;;;19.02;;
53959;SDS011;39866;48.638;-2.020;2022-12-07T08:47:49;27.80;;;18.80;;
53959;SDS011;39866;48.638;-2.020;2022-12-07T08:50:19;32.95;;;19.20;;
53959;SDS011;39866;48.638;-2.020;2022-12-07T08:52:47;28.67;;;18.35;;
53959;SDS011;39866;48.638;-2.020;2022-12-07T08:55:15;26.30;;;18.38;;
53959;SDS011;39866;48.638;-2.020;2022-12-07T08:57:40;30.85;;;19.02;;
53959;SDS011;39866;48.638;-2.020;2022-12-07T09:00:06;30.75;;;18.85;;
53959;SDS011;39866;48.638;-2.020;2022-12-07T09:02:32;31.20;;;19.70;;
53959;SDS011;39866;48.638;-2.020;2022-12-07T09:04:58;30.55;;;18.63;;
53959;SDS011;39866;48.638;-2.020;2022-12-07T09:07:23;27.00;;;18.70;;
53959;SDS011;39866;48.638;-2.020;2022-12-07T09:09:49;28.88;;;19.08;;
53959;SDS011;39866;48.638;-2.020;2022-12-07T09:12:15;30.85;;;20.08;;
53959;SDS011;39866;48.638;-2.020;2022-12-07T09:14:40;28.77;;;18.52;;
53959;SDS011;39866;48.638;-2.020;2022-12-07T09:17:09;28.15;;;18.75;;
53959;SDS011;39866;48.638;-2.020;2022-12-07T09:19:37;28.52;;;18.75;;
53959;SDS011;39866;48.638;-2.020;2022-12-07T09:22:03;29.40;;;19.25;;
53959;SDS011;39866;48.638;-2.020;2022-12-07T09:24:29;28.35;;;18.52;;
53959;SDS011;39866;48.638;-2.020;2022-12-07T09:26:55;27.33;;;18.75;;
53959;SDS011;39866;48.638;-2.020;2022-12-07T09:29:21;29.20;;;19.15;;
53959;SDS011;39866;48.638;-2.020;2022-12-07T09:31:47;29.42;;;18.80;;
53959;SDS011;39866;48.638;-2.020;2022-12-07T09:34:12;29.52;;;19.00;;
53959;SDS011;39866;48.638;-2.020;2022-12-07T09:36:38;28.17;;;18.70;;
53959;SDS011;39866;48.638;-2.020;2022-12-07T09:39:03;30.63;;;20.08;;
53959;SDS011;39866;48.638;-2.020;2022-12-07T09:41:30;27.80;;;19.42;;
53959;SDS011;39866;48.638;-2.020;2022-12-07T09:46:33;30.40;;;20.50;;
53959;SDS011;39866;48.638;-2.020;2022-12-07T09:49:02;28.58;;;19.15;;
53959;SDS011;39866;48.638;-2.020;2022-12-07T09:51:28;34.20;;;20.73;;
53959;SDS011;39866;48.638;-2.020;2022-12-07T09:53:53;32.25;;;20.25;;
53959;SDS011;39866;48.638;-2.020;2022-12-07T09:56:21;31.48;;;20.58;;
53959;SDS011;39866;48.638;-2.020;2022-12-07T09:58:48;29.05;;;19.33;;
53959;SDS011;39866;48.638;-2.020;2022-12-07T10:01:18;30.40;;;19.73;;
53959;SDS011;39866;48.638;-2.020;2022-12-07T10:03:48;29.10;;;18.77;;
53959;SDS011;39866;48.638;-2.020;2022-12-07T10:06:16;28.00;;;18.15;;
53959;SDS011;39866;48.638;-2.020;2022-12-07T10:08:41;28.35;;;18.65;;
53959;SDS011;39866;48.638;-2.020;2022-12-07T10:11:08;29.75;;;19.10;;
53959;SDS011;39866;48.638;-2.020;2022-12-07T10:16:03;29.25;;;18.73;;
53959;SDS011;39866;48.638;-2.020;2022-12-07T10:18:30;29.55;;;18.40;;
53959;SDS011;39866;48.638;-2.020;2022-12-07T10:21:02;29.63;;;18.65;;
53959;SDS011;39866;48.638;-2.020;2022-12-07T10:24:21;29.33;;;17.17;;
53959;SDS011;39866;48.638;-2.020;2022-12-07T10:34:40;30.27;;;17.73;;
53959;SDS011;39866;48.638;-2.020;2022-12-07T10:39:44;28.30;;;18.10;;
53959;SDS011;39866;48.638;-2.020;2022-12-07T10:42:19;25.50;;;16.45;;
53959;SDS011;39866;48.638;-2.020;2022-12-07T10:45:08;27.52;;;16.70;;
53959;SDS011;39866;48.638;-2.020;2022-12-07T10:47:47;25.58;;;16.42;;
53959;SDS011;39866;48.638;-2.020;2022-12-07T10:53:00;26.98;;;18.20;;
53959;SDS011;39866;48.638;-2.020;2022-12-07T11:01:36;29.48;;;17.25;;
53959;SDS011;39866;48.638;-2.020;2022-12-07T11:04:17;31.90;;;19.95;;
53959;SDS011;39866;48.638;-2.020;2022-12-07T11:06:46;30.10;;;18.83;;
53959;SDS011;39866;48.638;-2.020;2022-12-07T11:14:56;25.05;;;16.80;;
53959;SDS011;39866;48.638;-2.020;2022-12-07T11:20:20;29.25;;;17.98;;
53959;SDS011;39866;48.638;-2.020;2022-12-07T11:23:02;27.67;;;18.30;;
53959;SDS011;39866;48.638;-2.020;2022-12-07T11:25:44;25.30;;;16.75;;
53959;SDS011;39866;48.638;-2.020;2022-12-07T11:33:27;28.55;;;17.45;;
53959;SDS011;39866;48.638;-2.020;2022-12-07T11:41:13;27.02;;;17.67;;
53959;SDS011;39866;48.638;-2.020;2022-12-07T11:43:59;30.35;;;18.45;;
53959;SDS011;39866;48.638;-2.020;2022-12-07T11:52:59;25.85;;;16.90;;
53959;SDS011;39866;48.638;-2.020;2022-12-07T11:55:21;25.55;;;16.83;;
53959;SDS011;39866;48.638;-2.020;2022-12-07T11:58:00;25.95;;;16.92;;
53959;SDS011;39866;48.638;-2.020;2022-12-07T12:00:30;25.70;;;17.02;;
53959;SDS011;39866;48.638;-2.020;2022-12-07T12:02:58;24.38;;;15.98;;
53959;SDS011;39866;48.638;-2.020;2022-12-07T12:08:14;25.40;;;16.63;;
53959;SDS011;39866;48.638;-2.020;2022-12-07T12:16:30;23.80;;;15.90;;
53959;SDS011;39866;48.638;-2.020;2022-12-07T12:22:20;26.35;;;15.98;;
53959;SDS011;39866;48.638;-2.020;2022-12-07T12:24:52;32.33;;;17.33;;
53959;SDS011;39866;48.638;-2.020;2022-12-07T12:27:32;36.08;;;20.35;;
53959;SDS011;39866;48.638;-2.020;2022-12-07T12:30:01;21.52;;;14.00;;
53959;SDS011;39866;48.638;-2.020;2022-12-07T12:37:45;22.52;;;13.93;;
53959;SDS011;39866;48.638;-2.020;2022-12-07T12:42:46;22.23;;;15.00;;
53959;SDS011;39866;48.638;-2.020;2022-12-07T12:50:31;18.80;;;12.32;;
53959;SDS011;39866;48.638;-2.020;2022-12-07T12:53:32;21.38;;;13.30;;
53959;SDS011;39866;48.638;-2.020;2022-12-07T13:07:13;22.98;;;13.98;;
53959;SDS011;39866;48.638;-2.020;2022-12-07T13:12:58;20.45;;;14.05;;
53959;SDS011;39866;48.638;-2.020;2022-12-07T13:15:39;20.02;;;13.88;;
53959;SDS011;39866;48.638;-2.020;2022-12-07T13:23:31;22.02;;;14.82;;
53959;SDS011;39866;48.638;-2.020;2022-12-07T13:31:33;21.98;;;14.07;;
53959;SDS011;39866;48.638;-2.020;2022-12-07T13:36:55;21.60;;;14.52;;
53959;SDS011;39866;48.638;-2.020;2022-12-07T13:39:21;21.17;;;14.45;;
53959;SDS011;39866;48.638;-2.020;2022-12-07T13:41:49;20.30;;;14.15;;
53959;SDS011;39866;48.638;-2.020;2022-12-07T13:44:17;22.50;;;14.77;;
53959;SDS011;39866;48.638;-2.020;2022-12-07T13:49:21;20.23;;;13.52;;
53959;SDS011;39866;48.638;-2.020;2022-12-07T13:51:49;19.38;;;13.18;;
53959;SDS011;39866;48.638;-2.020;2022-12-07T13:54:15;21.23;;;13.23;;
53959;SDS011;39866;48.638;-2.020;2022-12-07T13:56:41;19.48;;;13.55;;
53959;SDS011;39866;48.638;-2.020;2022-12-07T13:59:14;17.55;;;12.18;;
53959;SDS011;39866;48.638;-2.020;2022-12-07T14:01:46;18.08;;;12.68;;
53959;SDS011;39866;48.638;-2.020;2022-12-07T14:07:18;19.48;;;12.23;;
53959;SDS011;39866;48.638;-2.020;2022-12-07T14:09:52;16.70;;;11.45;;
53959;SDS011;39866;48.638;-2.020;2022-12-07T14:12:20;15.63;;;11.05;;
53959;SDS011;39866;48.638;-2.020;2022-12-07T14:14:47;18.63;;;11.77;;
53959;SDS011;39866;48.638;-2.020;2022-12-07T14:17:20;17.63;;;11.95;;
53959;SDS011;39866;48.638;-2.020;2022-12-07T14:19:52;17.90;;;12.43;;
53959;SDS011;39866;48.638;-2.020;2022-12-07T14:24:48;18.05;;;12.88;;
53959;SDS011;39866;48.638;-2.020;2022-12-07T14:27:21;20.73;;;12.30;;
53959;SDS011;39866;48.638;-2.020;2022-12-07T14:29:47;16.77;;;12.45;;
53959;SDS011;39866;48.638;-2.020;2022-12-07T14:37:22;18.00;;;12.32;;
53959;SDS011;39866;48.638;-2.020;2022-12-07T14:39:48;16.70;;;11.57;;
53959;SDS011;39866;48.638;-2.020;2022-12-07T14:42:14;16.98;;;11.70;;
53959;SDS011;39866;48.638;-2.020;2022-12-07T14:44:39;16.13;;;10.98;;
53959;SDS011;39866;48.638;-2.020;2022-12-07T14:47:04;15.30;;;11.02;;
53959;SDS011;39866;48.638;-2.020;2022-12-07T14:49:30;16.67;;;11.50;;
53959;SDS011;39866;48.638;-2.020;2022-12-07T14:51:55;16.92;;;11.73;;
53959;SDS011;39866;48.638;-2.020;2022-12-07T14:54:21;15.25;;;10.70;;
53959;SDS011;39866;48.638;-2.020;2022-12-07T14:56:52;16.55;;;11.63;;
53959;SDS011;39866;48.638;-2.020;2022-12-07T14:59:17;18.05;;;11.15;;
53959;SDS011;39866;48.638;-2.020;2022-12-07T15:01:43;17.25;;;11.40;;
53959;SDS011;39866;48.638;-2.020;2022-12-07T15:04:09;14.38;;;10.07;;
53959;SDS011;39866;48.638;-2.020;2022-12-07T15:06:34;15.57;;;10.63;;
53959;SDS011;39866;48.638;-2.020;2022-12-07T15:09:00;14.98;;;9.93;;
53959;SDS011;39866;48.638;-2.020;2022-12-07T15:11:25;14.32;;;10.05;;
53959;SDS011;39866;48.638;-2.020;2022-12-07T15:13:51;13.23;;;8.90;;
53959;SDS011;39866;48.638;-2.020;2022-12-07T15:16:36;16.15;;;8.70;;
53959;SDS011;39866;48.638;-2.020;2022-12-07T15:19:02;13.35;;;8.82;;
53959;SDS011;39866;48.638;-2.020;2022-12-07T15:21:27;12.73;;;9.18;;
53959;SDS011;39866;48.638;-2.020;2022-12-07T15:23:53;14.88;;;9.05;;
53959;SDS011;39866;48.638;-2.020;2022-12-07T15:26:19;12.85;;;8.55;;
53959;SDS011;39866;48.638;-2.020;2022-12-07T15:28:44;13.40;;;8.98;;
53959;SDS011;39866;48.638;-2.020;2022-12-07T15:31:17;13.70;;;9.00;;
53959;SDS011;39866;48.638;-2.020;2022-12-07T15:33:42;12.02;;;8.70;;
53959;SDS011;39866;48.638;-2.020;2022-12-07T15:36:08;14.05;;;9.23;;
53959;SDS011;39866;48.638;-2.020;2022-12-07T15:38:45;12.88;;;9.50;;
53959;SDS011;39866;48.638;-2.020;2022-12-07T15:41:10;11.75;;;8.77;;
53959;SDS011;39866;48.638;-2.020;2022-12-07T15:43:36;13.68;;;9.20;;
53959;SDS011;39866;48.638;-2.020;2022-12-07T15:46:20;13.98;;;9.52;;
53959;SDS011;39866;48.638;-2.020;2022-12-07T15:48:45;14.43;;;9.02;;
53959;SDS011;39866;48.638;-2.020;2022-12-07T15:51:11;15.48;;;9.30;;
53959;SDS011;39866;48.638;-2.020;2022-12-07T15:53:36;14.30;;;8.90;;
53959;SDS011;39866;48.638;-2.020;2022-12-07T15:56:05;15.38;;;10.77;;
53959;SDS011;39866;48.638;-2.020;2022-12-07T15:58:31;14.10;;;10.00;;
53959;SDS011;39866;48.638;-2.020;2022-12-07T16:00:57;13.40;;;9.55;;
53959;SDS011;39866;48.638;-2.020;2022-12-07T16:03:22;13.85;;;8.77;;
53959;SDS011;39866;48.638;-2.020;2022-12-07T16:05:50;11.88;;;7.97;;
53959;SDS011;39866;48.638;-2.020;2022-12-07T16:08:17;12.05;;;8.48;;
53959;SDS011;39866;48.638;-2.020;2022-12-07T16:10:42;12.88;;;8.40;;
53959;SDS011;39866;48.638;-2.020;2022-12-07T16:13:08;12.75;;;9.23;;
53959;SDS011;39866;48.638;-2.020;2022-12-07T16:15:37;14.10;;;9.20;;
53959;SDS011;39866;48.638;-2.020;2022-12-07T16:18:04;12.00;;;8.73;;
53959;SDS011;39866;48.638;-2.020;2022-12-07T16:20:29;12.88;;;9.23;;
53959;SDS011;39866;48.638;-2.020;2022-12-07T16:22:54;12.40;;;8.52;;
53959;SDS011;39866;48.638;-2.020;2022-12-07T16:25:20;12.80;;;8.85;;
53959;SDS011;39866;48.638;-2.020;2022-12-07T16:27:45;12.80;;;8.82;;
53959;SDS011;39866;48.638;-2.020;2022-12-07T16:30:11;12.48;;;9.13;;
53959;SDS011;39866;48.638;-2.020;2022-12-07T16:32:37;14.70;;;9.07;;
53959;SDS011;39866;48.638;-2.020;2022-12-07T16:35:02;14.68;;;9.63;;
53959;SDS011;39866;48.638;-2.020;2022-12-07T16:37:28;15.40;;;9.48;;
53959;SDS011;39866;48.638;-2.020;2022-12-07T16:39:53;12.52;;;9.02;;
53959;SDS011;39866;48.638;-2.020;2022-12-07T16:42:19;14.75;;;10.00;;
53959;SDS011;39866;48.638;-2.020;2022-12-07T16:44:44;14.20;;;9.98;;
53959;SDS011;39866;48.638;-2.020;2022-12-07T16:47:09;15.05;;;10.40;;